Time;durP1;ratioP1;P1;durP2;ratioP2;P2;SDS_P1;SDS_P2;PMS_P1;PMS_P2;Temp;Humidity;BMP_temperature;BMP_pressure;BME280_temperature;BME280_humidity;BME280_pressure;Samples;Min_cycle;Max_cycle;Signal;HPM_P1;HPM_P2
2023/05/10 00:00:49;;;;;;;;;;;;;;;7.67;77.99;96880.22;5095756;28;19986;-68
2023/05/10 00:03:16;;;;;;;;;;;;;;;7.75;78.49;96876.59;5095709;28;19927;-66
2023/05/10 00:05:43;;;;;;;;;;;;;;;7.83;78.83;96879.91;5095694;28;19973;-68
2023/05/10 00:08:10;;;;;;;;;;;;;;;7.81;78.45;96874.75;5095534;28;19935;-68
2023/05/10 00:10:37;;;;;;;;;;;;;;;7.87;78.38;96871.13;5095445;28;19927;-69
2023/05/10 00:13:04;;;;;;;;;;;;;;;7.94;79.19;96867.50;5095585;28;19943;-67
2023/05/10 00:15:32;;;;;;;;;;;;;;;7.99;79.47;96870.00;5095421;28;19942;-67
2023/05/10 00:17:59;;;;;;;;;;;;;;;7.95;78.73;96864.00;5095339;28;19927;-67
2023/05/10 00:20:26;;;;;;;;;;;;;;;7.93;77.88;96865.81;5095316;28;19919;-69
2023/05/10 00:22:52;;;;;;;;;;;;;;;7.93;78.53;96864.94;5095107;28;19965;-67
2023/05/10 00:25:21;;;;;;;;;;;;;;;7.92;78.72;96861.47;5095168;28;19924;-67
2023/05/10 00:27:48;;;;;;;;;;;;;;;7.92;79.02;96865.84;5095182;28;19927;-69
2023/05/10 00:30:15;;;;;;;;;;;;;;;7.86;77.07;96865.97;5095101;28;19920;-67
2023/05/10 00:32:43;;;;;;;;;;;;;;;7.80;76.11;96861.75;5095037;28;19923;-68
2023/05/10 00:35:10;;;;;;;;;;;;;;;7.78;76.77;96861.78;5094941;28;20006;-67
2023/05/10 00:37:37;;;;;;;;;;;;;;;7.75;76.42;96859.25;5094962;28;19924;-67
2023/05/10 00:40:05;;;;;;;;;;;;;;;7.75;77.01;96861.84;5094957;28;20022;-69
2023/05/10 00:42:31;;;;;;;;;;;;;;;7.73;77.71;96857.56;5094817;28;19923;-69
2023/05/10 00:44:58;;;;;;;;;;;;;;;7.76;78.86;96855.75;5094770;28;19920;-67
2023/05/10 00:47:25;;;;;;;;;;;;;;;7.71;77.82;96858.44;5094577;28;19924;-69
2023/05/10 00:49:54;;;;;;;;;;;;;;;7.72;78.42;96854.09;5094811;28;19923;-69
2023/05/10 00:52:20;;;;;;;;;;;;;;;7.73;78.24;96860.19;5094805;28;19924;-69
2023/05/10 00:54:48;;;;;;;;;;;;;;;7.70;79.38;96848.91;5094818;28;19974;-69
2023/05/10 00:57:15;;;;;;;;;;;;;;;7.70;79.09;96854.13;5094552;28;20369;-68
2023/05/10 00:59:41;;;;;;;;;;;;;;;7.74;79.74;96852.34;5094501;28;19920;-69
2023/05/10 01:02:08;;;;;;;;;;;;;;;7.76;79.44;96855.75;5094488;28;20385;-67
2023/05/10 01:04:36;;;;;;;;;;;;;;;7.74;79.54;96854.06;5094535;28;19920;-69
2023/05/10 01:07:04;;;;;;;;;;;;;;;7.81;79.90;96856.50;5094482;28;19924;-69
2023/05/10 01:09:31;;;;;;;;;;;;;;;7.88;79.86;96849.41;5094373;28;20413;-68
2023/05/10 01:11:58;;;;;;;;;;;;;;;7.90;79.52;96851.97;5094288;28;19971;-69
2023/05/10 01:14:26;;;;;;;;;;;;;;;7.92;80.07;96852.81;5094305;28;19945;-68
2023/05/10 01:16:53;;;;;;;;;;;;;;;7.94;80.21;96849.28;5094222;28;19920;-69
2023/05/10 01:19:23;;;;;;;;;;;;;;;7.92;80.14;96845.84;5094151;28;19920;-67
2023/05/10 01:21:52;;;;;;;;;;;;;;;7.94;80.17;96845.78;5094235;28;19920;-69
2023/05/10 01:24:33;;;;;;;;;;;;;;;7.93;80.07;96842.34;5094117;28;19942;-67
2023/05/10 01:27:14;;;;;;;;;;;;;;;7.93;79.52;96846.69;5094016;28;19924;-67
2023/05/10 01:30:05;;;;;;;;;;;;;;;7.93;78.86;96849.31;5091558;28;20014;-69
2023/05/10 01:32:36;;;;;;;;;;;;;;;7.82;79.81;96844.31;5037141;28;19925;-68
2023/05/10 01:35:06;;;;;;;;;;;;;;;7.85;79.81;96844.25;5093135;28;19920;-69
2023/05/10 01:37:39;;;;;;;;;;;;;;;7.90;80.28;96841.56;5093946;28;19965;-70
2023/05/10 01:40:09;;;;;;;;;;;;;;;7.91;81.31;96838.91;5093779;28;19920;-67
2023/05/10 01:42:41;;;;;;;;;;;;;;;7.91;81.21;96833.72;5093762;28;19920;-68
2023/05/10 01:45:13;;;;;;;;;;;;;;;7.83;80.93;96826.06;5093811;28;19920;-68
2023/05/10 01:47:42;;;;;;;;;;;;;;;7.85;80.56;96828.63;5093595;28;19920;-68
2023/05/10 01:50:12;;;;;;;;;;;;;;;7.87;81.12;96837.28;5093985;28;19963;-69
2023/05/10 01:52:43;;;;;;;;;;;;;;;7.89;81.56;96842.47;5093695;28;19927;-68
2023/05/10 01:55:12;;;;;;;;;;;;;;;7.88;81.20;96838.97;5093721;28;20385;-70
2023/05/10 01:57:40;;;;;;;;;;;;;;;7.90;80.84;96846.75;5093630;28;20340;-69
2023/05/10 02:00:09;;;;;;;;;;;;;;;7.91;80.52;96849.34;5093537;28;19978;-69
2023/05/10 02:02:38;;;;;;;;;;;;;;;7.93;80.95;96849.31;5093521;28;19927;-67
2023/05/10 02:05:07;;;;;;;;;;;;;;;7.95;81.87;96850.13;5093580;28;19965;-67
2023/05/10 02:07:35;;;;;;;;;;;;;;;7.95;81.31;96850.13;5093506;28;19927;-67
2023/05/10 02:10:02;;;;;;;;;;;;;;;7.94;80.28;96851.00;5093557;28;19920;-69
2023/05/10 02:12:30;;;;;;;;;;;;;;;7.89;80.92;96837.25;5093605;28;19973;-69
2023/05/10 02:14:58;;;;;;;;;;;;;;;7.86;79.77;96839.91;5093560;28;19920;-67
2023/05/10 02:17:26;;;;;;;;;;;;;;;7.82;80.77;96839.97;5093417;28;20324;-70
2023/05/10 02:19:54;;;;;;;;;;;;;;;7.78;81.19;96843.56;5093388;28;19975;-67
2023/05/10 02:22:23;;;;;;;;;;;;;;;7.82;81.09;96837.38;5093424;28;20275;-69
2023/05/10 02:24:51;;;;;;;;;;;;;;;7.83;81.21;96838.25;5093452;28;20027;-68
2023/05/10 02:27:20;;;;;;;;;;;;;;;7.81;80.67;96835.66;5093390;28;19927;-69
2023/05/10 02:29:47;;;;;;;;;;;;;;;7.80;80.99;96827.88;5093370;28;19926;-68
2023/05/10 02:32:15;;;;;;;;;;;;;;;7.74;80.88;96823.69;5093342;28;19920;-69
2023/05/10 02:34:44;;;;;;;;;;;;;;;7.75;81.30;96833.19;5093379;28;20353;-67
2023/05/10 02:37:12;;;;;;;;;;;;;;;7.75;81.46;96834.94;5093232;28;19924;-68
2023/05/10 02:39:43;;;;;;;;;;;;;;;7.73;81.54;96839.34;5093199;28;19926;-67
2023/05/10 02:42:11;;;;;;;;;;;;;;;7.67;80.63;96833.34;5093229;28;20383;-68
2023/05/10 02:44:39;;;;;;;;;;;;;;;7.57;80.23;96830.09;5093258;28;19924;-69
2023/05/10 02:47:06;;;;;;;;;;;;;;;7.58;80.20;96836.16;5094865;28;19942;-68
2023/05/10 02:49:34;;;;;;;;;;;;;;;7.50;81.30;96833.75;5097099;28;19920;-67
2023/05/10 02:52:02;;;;;;;;;;;;;;;7.46;80.59;96832.94;5096952;28;19919;-67
2023/05/10 02:54:31;;;;;;;;;;;;;;;7.47;80.94;96833.78;5096959;28;19920;-67
2023/05/10 02:57:00;;;;;;;;;;;;;;;7.45;80.82;96830.34;5096895;28;19924;-69
2023/05/10 02:59:27;;;;;;;;;;;;;;;7.45;80.30;96828.63;5096871;28;19920;-67
2023/05/10 03:01:53;;;;;;;;;;;;;;;7.43;80.60;96832.13;5096830;28;19930;-67
2023/05/10 03:04:20;;;;;;;;;;;;;;;7.44;81.55;96836.47;5096813;28;20077;-68
2023/05/10 03:06:47;;;;;;;;;;;;;;;7.43;81.34;96834.72;5096928;28;19959;-67
2023/05/10 03:09:15;;;;;;;;;;;;;;;7.44;80.96;96839.06;5096706;28;19924;-67
2023/05/10 03:11:48;;;;;;;;;;;;;;;7.34;81.42;96843.59;5096562;28;19920;-67
2023/05/10 03:14:22;;;;;;;;;;;;;;;7.25;80.71;96838.59;5096631;28;19941;-69
2023/05/10 03:16:54;;;;;;;;;;;;;;;7.25;80.88;96836.81;5096525;28;19950;-67
2023/05/10 03:19:25;;;;;;;;;;;;;;;7.26;81.22;96837.69;5096538;28;20006;-69
2023/05/10 03:21:54;;;;;;;;;;;;;;;7.25;81.45;96831.63;5096438;28;19927;-69
2023/05/10 03:24:22;;;;;;;;;;;;;;;7.25;81.18;96831.63;5096468;28;19923;-69
2023/05/10 03:26:50;;;;;;;;;;;;;;;7.22;81.15;96833.44;5096392;28;19978;-68
2023/05/10 03:29:18;;;;;;;;;;;;;;;7.26;81.61;96842.91;5096347;28;20373;-67
2023/05/10 03:31:45;;;;;;;;;;;;;;;7.31;81.99;96852.31;5096303;28;19981;-70
2023/05/10 03:34:12;;;;;;;;;;;;;;;7.31;81.58;96847.13;5096287;28;19919;-67
2023/05/10 03:36:40;;;;;;;;;;;;;;;7.28;81.67;96857.59;5096170;28;19924;-67
2023/05/10 03:39:07;;;;;;;;;;;;;;;7.30;81.78;96849.75;5096220;28;20355;-70
2023/05/10 03:41:33;;;;;;;;;;;;;;;7.36;82.11;96852.22;5095956;28;19926;-69
2023/05/10 03:44:00;;;;;;;;;;;;;;;7.36;82.02;96853.97;5096061;28;19919;-67
2023/05/10 03:46:29;;;;;;;;;;;;;;;7.42;81.90;96857.31;5095913;28;19920;-70
2023/05/10 03:48:56;;;;;;;;;;;;;;;7.48;81.74;96865.88;5095915;28;20365;-70
2023/05/10 03:51:23;;;;;;;;;;;;;;;7.47;81.48;96865.03;5096075;28;19920;-68
2023/05/10 03:53:50;;;;;;;;;;;;;;;7.55;81.91;96859.66;5095832;28;20344;-68
2023/05/10 03:56:18;;;;;;;;;;;;;;;7.59;82.70;96854.34;5095807;28;19924;-69
2023/05/10 03:58:45;;;;;;;;;;;;;;;7.62;82.87;96855.19;5094941;28;19974;-69
2023/05/10 04:01:14;;;;;;;;;;;;;;;7.59;82.59;96859.56;5095775;28;19943;-70
2023/05/10 04:03:42;;;;;;;;;;;;;;;7.65;82.04;96862.94;5095730;28;19920;-68
2023/05/10 04:06:11;;;;;;;;;;;;;;;7.70;82.22;96869.75;5095605;28;19973;-67
2023/05/10 04:08:38;;;;;;;;;;;;;;;7.75;82.43;96872.25;5095644;28;19920;-68
2023/05/10 04:11:08;;;;;;;;;;;;;;;7.75;81.64;96869.66;5095521;28;20011;-67
2023/05/10 04:13:35;;;;;;;;;;;;;;;7.78;81.23;96872.19;5095536;28;20008;-70
2023/05/10 04:16:02;;;;;;;;;;;;;;;7.83;81.03;96872.94;5095443;28;19973;-67
2023/05/10 04:18:29;;;;;;;;;;;;;;;7.90;81.10;96875.41;5095267;28;20332;-69
2023/05/10 04:20:57;;;;;;;;;;;;;;;7.96;80.95;96867.47;5095346;28;19927;-67
2023/05/10 04:23:24;;;;;;;;;;;;;;;8.03;80.58;96870.78;5095281;28;19923;-69
2023/05/10 04:25:51;;;;;;;;;;;;;;;8.09;80.24;96866.31;5095245;28;20288;-70
2023/05/10 04:28:18;;;;;;;;;;;;;;;8.18;77.96;96869.56;5095298;28;19920;-68
2023/05/10 04:30:45;;;;;;;;;;;;;;;8.27;77.66;96871.09;5095198;28;19973;-67
2023/05/10 04:33:12;;;;;;;;;;;;;;;8.24;76.65;96872.06;5095503;28;19920;-69
2023/05/10 04:35:39;;;;;;;;;;;;;;;8.27;76.47;96873.72;5095068;28;20292;-69
2023/05/10 04:38:08;;;;;;;;;;;;;;;8.34;75.58;96878.75;5095018;28;20291;-67
2023/05/10 04:40:35;;;;;;;;;;;;;;;8.38;73.92;96873.47;5095059;28;19930;-67
2023/05/10 04:43:06;;;;;;;;;;;;;;;8.37;72.64;96871.78;5094904;28;19927;-68
2023/05/10 04:45:33;;;;;;;;;;;;;;;8.41;73.90;96869.06;5094840;28;20282;-69
2023/05/10 04:48:00;;;;;;;;;;;;;;;8.50;74.25;96877.53;5094601;28;19920;-67
2023/05/10 04:50:26;;;;;;;;;;;;;;;8.54;70.66;96871.38;5094749;28;19920;-68
2023/05/10 04:52:54;;;;;;;;;;;;;;;8.65;70.48;96872.00;5094807;28;19986;-69
2023/05/10 04:55:22;;;;;;;;;;;;;;;8.76;70.56;96871.69;5094678;28;19986;-68
2023/05/10 04:57:49;;;;;;;;;;;;;;;8.80;70.14;96869.88;5094522;28;19973;-69
2023/05/10 05:00:16;;;;;;;;;;;;;;;8.85;69.05;96870.59;5094702;28;19924;-67
2023/05/10 05:02:44;;;;;;;;;;;;;;;8.97;68.42;96872.03;5094673;28;19923;-69
2023/05/10 05:05:11;;;;;;;;;;;;;;;9.01;67.32;96873.69;5094509;28;19932;-68
2023/05/10 05:07:38;;;;;;;;;;;;;;;9.05;66.68;96877.91;5094389;28;20396;-69
2023/05/10 05:10:05;;;;;;;;;;;;;;;8.96;66.57;96878.16;5094415;28;19973;-69
2023/05/10 05:12:34;;;;;;;;;;;;;;;9.14;68.21;96873.34;5094359;28;19920;-69
2023/05/10 05:15:00;;;;;;;;;;;;;;;9.27;67.81;96866.88;5094341;28;20298;-67
2023/05/10 05:17:27;;;;;;;;;;;;;;;9.40;65.66;96875.25;5094321;28;19965;-68
2023/05/10 05:19:54;;;;;;;;;;;;;;;9.52;67.01;96870.56;5094223;28;19920;-67
2023/05/10 05:22:27;;;;;;;;;;;;;;;9.73;68.21;96871.72;5094389;28;19924;-68
2023/05/10 05:24:54;;;;;;;;;;;;;;;9.83;66.45;96870.56;5094182;28;19920;-69
2023/05/10 05:27:23;;;;;;;;;;;;;;;9.92;67.23;96869.41;5094225;28;19924;-70
2023/05/10 05:29:53;;;;;;;;;;;;;;;9.98;66.68;96873.59;5094118;28;20362;-70
2023/05/10 05:32:20;;;;;;;;;;;;;;;10.08;65.19;96874.16;5094265;28;19999;-70
2023/05/10 05:34:47;;;;;;;;;;;;;;;10.21;64.90;96885.94;5094110;28;19927;-68
2023/05/10 05:37:14;;;;;;;;;;;;;;;10.31;64.96;96878.69;5093826;28;20042;-69
2023/05/10 05:39:41;;;;;;;;;;;;;;;10.35;64.15;96887.28;5093988;28;20377;-68
2023/05/10 05:42:08;;;;;;;;;;;;;;;10.07;64.42;96880.28;5094017;28;20285;-68
2023/05/10 05:44:35;;;;;;;;;;;;;;;9.96;64.58;96891.06;5093940;28;20427;-68
2023/05/10 05:47:03;;;;;;;;;;;;;;;9.70;64.44;96885.72;5093643;28;20060;-67
2023/05/10 05:49:30;;;;;;;;;;;;;;;9.68;65.35;96894.50;5093815;28;19920;-69
2023/05/10 05:52:00;;;;;;;;;;;;;;;9.56;65.96;96906.16;5093846;28;19955;-68
2023/05/10 05:54:26;;;;;;;;;;;;;;;9.38;65.81;96892.72;5093824;28;19928;-68
2023/05/10 05:56:54;;;;;;;;;;;;;;;9.33;67.22;96907.66;5093713;28;20405;-67
2023/05/10 05:59:21;;;;;;;;;;;;;;;9.26;68.57;96895.66;5093747;28;19923;-67
2023/05/10 06:01:48;;;;;;;;;;;;;;;9.30;68.04;96911.19;5093742;28;19920;-67
2023/05/10 06:04:16;;;;;;;;;;;;;;;9.37;67.88;96909.28;5093754;28;19965;-68
2023/05/10 06:06:43;;;;;;;;;;;;;;;9.54;68.52;96906.19;5093589;28;19943;-68
2023/05/10 06:09:10;;;;;;;;;;;;;;;9.56;66.55;96907.00;5093581;28;19966;-67
2023/05/10 06:11:37;;;;;;;;;;;;;;;9.61;67.89;96906.88;5093559;28;19924;-67
2023/05/10 06:14:04;;;;;;;;;;;;;;;9.80;70.29;96907.22;5093500;28;20377;-68
2023/05/10 06:16:31;;;;;;;;;;;;;;;10.05;68.89;96901.25;5093481;28;19920;-68
2023/05/10 06:18:57;;;;;;;;;;;;;;;10.22;64.46;96910.34;5093496;28;20022;-67
2023/05/10 06:21:27;;;;;;;;;;;;;;;10.11;64.47;96910.66;5094272;28;19920;-69
2023/05/10 06:23:54;;;;;;;;;;;;;;;10.04;65.87;96912.63;5097777;28;20019;-69
2023/05/10 06:26:21;;;;;;;;;;;;;;;9.96;64.37;96905.00;5097708;28;20270;-68
2023/05/10 06:28:48;;;;;;;;;;;;;;;9.95;65.13;96916.38;5097478;28;19927;-69
2023/05/10 06:31:15;;;;;;;;;;;;;;;9.97;64.39;96919.78;5097553;28;19967;-68
2023/05/10 06:33:43;;;;;;;;;;;;;;;9.83;65.07;96921.94;5097467;28;20023;-68
2023/05/10 06:36:10;;;;;;;;;;;;;;;9.86;65.09;96912.28;5097327;28;19927;-67
2023/05/10 06:38:39;;;;;;;;;;;;;;;10.00;66.42;96908.41;5097192;28;19924;-67
2023/05/10 06:41:08;;;;;;;;;;;;;;;10.15;65.44;96920.16;5097246;28;19924;-68
2023/05/10 06:43:35;;;;;;;;;;;;;;;10.20;65.72;96913.00;5097396;28;19959;-68
2023/05/10 06:46:02;;;;;;;;;;;;;;;10.26;64.34;96917.19;5097207;28;19920;-68
2023/05/10 06:48:29;;;;;;;;;;;;;;;10.35;64.91;96929.97;5096958;28;19920;-69
2023/05/10 06:50:55;;;;;;;;;;;;;;;10.36;64.98;96928.22;5097132;28;20326;-68
2023/05/10 06:53:23;;;;;;;;;;;;;;;10.35;63.63;96921.28;5097042;28;19924;-68
2023/05/10 06:55:51;;;;;;;;;;;;;;;10.29;64.63;96926.72;5096943;28;19973;-68
2023/05/10 06:58:18;;;;;;;;;;;;;;;10.17;64.11;96922.72;5096905;28;19919;-68
2023/05/10 07:00:46;;;;;;;;;;;;;;;10.16;65.08;96918.38;5096971;28;19920;-69
2023/05/10 07:03:13;;;;;;;;;;;;;;;10.11;64.29;96908.91;5096811;28;20335;-69
2023/05/10 07:05:41;;;;;;;;;;;;;;;10.21;64.61;96911.25;5097045;28;19920;-69
2023/05/10 07:08:08;;;;;;;;;;;;;;;10.28;63.76;96914.53;5096960;28;19974;-68
2023/05/10 07:10:35;;;;;;;;;;;;;;;10.27;63.65;96916.31;5096667;28;19920;-69
2023/05/10 07:13:04;;;;;;;;;;;;;;;10.28;64.72;96917.13;5096793;28;19927;-68
2023/05/10 07:15:30;;;;;;;;;;;;;;;10.45;64.60;96916.63;5096604;28;20442;-69
2023/05/10 07:17:57;;;;;;;;;;;;;;;10.60;63.29;96916.16;5096608;28;19920;-69
2023/05/10 07:20:24;;;;;;;;;;;;;;;10.83;63.28;96918.94;5096569;28;19973;-68
2023/05/10 07:22:51;;;;;;;;;;;;;;;11.08;63.50;96921.56;5096579;28;19920;-68
2023/05/10 07:25:17;;;;;;;;;;;;;;;11.31;59.01;96926.94;5096569;28;19924;-67
2023/05/10 07:27:45;;;;;;;;;;;;;;;11.51;61.88;96918.38;5096386;28;19927;-67
2023/05/10 07:30:14;;;;;;;;;;;;;;;11.58;58.16;96930.34;5096306;28;19928;-68
2023/05/10 07:32:41;;;;;;;;;;;;;;;11.65;59.12;96927.50;5095650;28;19980;-68
2023/05/10 07:35:09;;;;;;;;;;;;;;;11.68;58.71;96920.38;5095933;28;20000;-68
2023/05/10 07:37:35;;;;;;;;;;;;;;;11.87;58.91;96919.72;5096184;28;19946;-69
2023/05/10 07:40:02;;;;;;;;;;;;;;;12.22;57.37;96925.41;5096198;28;20012;-68
2023/05/10 07:42:29;;;;;;;;;;;;;;;12.09;55.39;96940.78;5096219;28;19920;-69
2023/05/10 07:44:56;;;;;;;;;;;;;;;12.07;55.74;96933.88;5096307;28;19920;-68
2023/05/10 07:47:24;;;;;;;;;;;;;;;12.35;55.56;96928.44;5095803;28;20015;-68
2023/05/10 07:49:51;;;;;;;;;;;;;;;12.59;53.19;96941.50;5096045;28;20365;-69
2023/05/10 07:52:17;;;;;;;;;;;;;;;12.56;52.94;96935.50;5095934;28;19949;-69
2023/05/10 07:54:44;;;;;;;;;;;;;;;12.59;53.64;96933.63;5095900;28;20289;-68
2023/05/10 07:57:14;;;;;;;;;;;;;;;12.44;51.98;96937.72;5095857;28;19927;-69
2023/05/10 07:59:41;;;;;;;;;;;;;;;12.57;54.30;96935.44;5095683;28;19920;-69
2023/05/10 08:02:07;;;;;;;;;;;;;;;12.72;53.96;96938.38;5095896;28;19920;-68
2023/05/10 08:04:36;;;;;;;;;;;;;;;12.66;54.91;96933.34;5095721;28;19927;-67
2023/05/10 08:07:03;;;;;;;;;;;;;;;12.80;51.93;96945.94;5095702;28;20365;-69
2023/05/10 08:09:29;;;;;;;;;;;;;;;12.70;52.23;96943.69;5095612;28;19946;-68
2023/05/10 08:11:56;;;;;;;;;;;;;;;12.64;54.62;96944.78;5095711;28;19920;-68
2023/05/10 08:14:23;;;;;;;;;;;;;;;12.53;51.72;96946.13;5095650;28;19973;-68
2023/05/10 08:16:49;;;;;;;;;;;;;;;12.43;51.82;96935.16;5095459;28;19920;-68
2023/05/10 08:19:18;;;;;;;;;;;;;;;12.50;55.74;96934.81;5095480;28;19927;-68
2023/05/10 08:21:47;;;;;;;;;;;;;;;12.53;53.38;96943.50;5095346;28;19963;-67
2023/05/10 08:24:13;;;;;;;;;;;;;;;12.58;53.73;96944.19;5095293;28;20498;-68
2023/05/10 08:26:40;;;;;;;;;;;;;;;12.51;52.38;96940.94;5095339;28;19949;-68
2023/05/10 08:29:07;;;;;;;;;;;;;;;12.72;54.00;96941.00;5095211;28;20357;-68
2023/05/10 08:31:34;;;;;;;;;;;;;;;12.92;53.22;96947.22;5095134;28;19920;-68
2023/05/10 08:34:01;;;;;;;;;;;;;;;12.88;52.45;96944.69;5095075;28;19949;-69
2023/05/10 08:36:28;;;;;;;;;;;;;;;13.15;51.94;96948.88;5095200;28;19920;-68
2023/05/10 08:38:57;;;;;;;;;;;;;;;13.07;51.14;96943.09;5094980;28;19920;-68
2023/05/10 08:41:25;;;;;;;;;;;;;;;12.99;51.92;96940.78;5095116;28;20381;-68
2023/05/10 08:43:52;;;;;;;;;;;;;;;13.20;51.83;96946.06;5094803;28;20365;-69
2023/05/10 08:46:20;;;;;;;;;;;;;;;13.43;53.41;96939.84;5094764;28;19920;-68
2023/05/10 08:48:47;;;;;;;;;;;;;;;13.50;51.05;96948.31;5094672;28;20006;-68
2023/05/10 08:51:16;;;;;;;;;;;;;;;13.26;50.85;96938.78;5094812;28;20366;-68
2023/05/10 08:53:43;;;;;;;;;;;;;;;13.24;52.38;96947.63;5094919;28;19955;-68
2023/05/10 08:56:11;;;;;;;;;;;;;;;13.20;52.77;96956.56;5095011;28;19927;-68
2023/05/10 08:58:38;;;;;;;;;;;;;;;13.20;50.77;96949.53;5094661;28;20384;-69
2023/05/10 09:01:06;;;;;;;;;;;;;;;13.44;50.51;96956.44;5094753;28;19920;-68
2023/05/10 09:03:33;;;;;;;;;;;;;;;13.52;52.03;96954.38;5094478;28;19927;-68
2023/05/10 09:06:00;;;;;;;;;;;;;;;13.56;49.28;96955.06;5094619;28;19981;-69
2023/05/10 09:08:27;;;;;;;;;;;;;;;13.32;50.35;96948.16;5094762;28;19920;-68
2023/05/10 09:10:54;;;;;;;;;;;;;;;12.99;50.37;96944.28;5094472;28;19919;-68
2023/05/10 09:13:24;;;;;;;;;;;;;;;12.88;49.97;96947.34;5094361;28;20347;-68
2023/05/10 09:15:51;;;;;;;;;;;;;;;12.84;50.38;96934.38;5094382;28;20435;-68
2023/05/10 09:18:18;;;;;;;;;;;;;;;13.00;51.24;96938.09;5094281;28;19943;-68
2023/05/10 09:20:45;;;;;;;;;;;;;;;12.86;51.09;96933.41;5094391;28;19919;-68
2023/05/10 09:23:12;;;;;;;;;;;;;;;12.86;49.71;96936.03;5094155;28;19924;-68
2023/05/10 09:25:40;;;;;;;;;;;;;;;12.89;50.83;96929.81;5094161;28;19923;-68
2023/05/10 09:28:08;;;;;;;;;;;;;;;12.91;50.89;96937.63;5094211;28;19920;-69
2023/05/10 09:30:36;;;;;;;;;;;;;;;13.09;51.17;96938.63;5094222;28;19924;-68
2023/05/10 09:33:03;;;;;;;;;;;;;;;13.46;50.80;96936.22;5094096;28;20018;-69
2023/05/10 09:35:30;;;;;;;;;;;;;;;13.63;50.06;96938.13;5094000;28;19967;-69
2023/05/10 09:37:57;;;;;;;;;;;;;;;13.74;51.53;96927.13;5093916;28;19920;-69
2023/05/10 09:40:25;;;;;;;;;;;;;;;13.88;51.77;96940.50;5093842;28;20007;-66
2023/05/10 09:42:53;;;;;;;;;;;;;;;14.00;50.93;96928.56;5093763;28;20010;-67
2023/05/10 09:45:20;;;;;;;;;;;;;;;14.58;49.67;96925.94;5094017;28;19955;-66
2023/05/10 09:47:48;;;;;;;;;;;;;;;14.64;48.23;96922.16;5093813;28;20014;-67
2023/05/10 09:50:14;;;;;;;;;;;;;;;14.30;48.78;96924.59;5093818;28;20370;-66
2023/05/10 09:52:47;;;;;;;;;;;;;;;13.83;48.63;96933.75;5093778;28;19969;-67
2023/05/10 09:55:14;;;;;;;;;;;;;;;13.94;51.34;96934.13;5093820;28;20002;-67
2023/05/10 09:57:41;;;;;;;;;;;;;;;13.75;50.48;96931.47;5093130;28;19928;-67
2023/05/10 10:00:09;;;;;;;;;;;;;;;13.69;51.72;96924.72;5093705;28;19927;-67
2023/05/10 10:02:36;;;;;;;;;;;;;;;13.76;51.44;96920.88;5093738;28;20293;-67
2023/05/10 10:05:07;;;;;;;;;;;;;;;13.96;54.74;96926.16;5093719;28;19970;-67
2023/05/10 10:07:34;;;;;;;;;;;;;;;13.98;51.79;96913.81;5093643;28;19963;-66
2023/05/10 10:10:01;;;;;;;;;;;;;;;14.02;53.34;96918.00;5093688;28;20301;-66
2023/05/10 10:12:28;;;;;;;;;;;;;;;14.14;52.22;96916.56;5093551;28;19966;-67
2023/05/10 10:14:56;;;;;;;;;;;;;;;13.64;49.13;96929.34;5093587;28;20425;-67
2023/05/10 10:17:24;;;;;;;;;;;;;;;13.37;49.52;96933.03;5093630;28;19920;-67
2023/05/10 10:19:51;;;;;;;;;;;;;;;13.09;50.72;96928.09;5093525;28;20024;-67
2023/05/10 10:22:19;;;;;;;;;;;;;;;12.86;51.35;96925.53;5093652;28;19927;-67
2023/05/10 10:24:46;;;;;;;;;;;;;;;12.90;51.05;96923.63;5093567;28;19959;-67
2023/05/10 10:27:20;;;;;;;;;;;;;;;12.92;50.79;96924.44;5093424;28;19919;-66
2023/05/10 10:30:02;;;;;;;;;;;;;;;12.88;51.92;96914.97;5093482;28;19934;-66
2023/05/10 10:32:31;;;;;;;;;;;;;;;12.79;51.93;96908.31;5093479;28;19927;-66
2023/05/10 10:34:58;;;;;;;;;;;;;;;12.69;49.70;96917.50;5093491;28;20431;-66
2023/05/10 10:37:42;;;;;;;;;;;;;;;12.58;50.12;96913.53;5093462;28;19920;-66
2023/05/10 10:40:23;;;;;;;;;;;;;;;12.62;52.36;96904.59;5093187;28;20466;-67
2023/05/10 10:42:51;;;;;;;;;;;;;;;12.64;53.25;96913.28;5093351;28;19927;-67
2023/05/10 10:45:18;;;;;;;;;;;;;;;12.70;53.17;96908.72;5093359;28;20016;-67
2023/05/10 10:47:45;;;;;;;;;;;;;;;12.84;52.43;96913.38;5092973;28;19920;-67
2023/05/10 10:50:12;;;;;;;;;;;;;;;12.95;52.92;96910.31;5093220;28;19959;-67
2023/05/10 10:52:41;;;;;;;;;;;;;;;13.06;53.39;96913.34;5093230;28;20373;-67
2023/05/10 10:55:09;;;;;;;;;;;;;;;13.13;53.18;96914.78;5093212;28;19955;-67
2023/05/10 10:57:44;;;;;;;;;;;;;;;13.30;51.83;96915.84;5093243;28;20281;-67
2023/05/10 11:00:24;;;;;;;;;;;;;;;13.33;52.80;96913.09;5093008;28;19924;-66
2023/05/10 11:02:52;;;;;;;;;;;;;;;13.33;48.97;96912.25;5093149;28;19924;-66
2023/05/10 11:05:40;;;;;;;;;;;;;;;13.59;49.42;96916.38;5093242;28;19920;-67
2023/05/10 11:08:19;;;;;;;;;;;;;;;13.66;50.08;96906.44;5094831;28;19919;-67
2023/05/10 11:10:53;;;;;;;;;;;;;;;13.90;49.30;96914.16;5096805;28;20354;-67
2023/05/10 11:13:28;;;;;;;;;;;;;;;13.92;47.75;96922.81;5096759;28;19978;-66
2023/05/10 11:15:56;;;;;;;;;;;;;;;13.74;47.80;96914.00;5096655;28;20392;-66
2023/05/10 11:18:25;;;;;;;;;;;;;;;13.74;49.11;96909.59;5096502;28;19924;-66
2023/05/10 11:20:52;;;;;;;;;;;;;;;13.63;49.21;96902.19;5096491;28;19973;-67
2023/05/10 11:23:21;;;;;;;;;;;;;;;13.47;50.00;96906.38;5096530;28;19920;-67
2023/05/10 11:25:49;;;;;;;;;;;;;;;13.56;50.20;96899.88;5096590;28;20282;-67
2023/05/10 11:28:18;;;;;;;;;;;;;;;13.75;49.82;96903.41;5096485;28;20401;-67
2023/05/10 11:30:45;;;;;;;;;;;;;;;14.07;50.26;96892.34;5096343;28;20358;-67
2023/05/10 11:33:16;;;;;;;;;;;;;;;14.25;49.62;96892.41;5096383;28;19920;-67
2023/05/10 11:35:43;;;;;;;;;;;;;;;14.57;49.63;96889.97;5096131;28;20006;-67
2023/05/10 11:38:10;;;;;;;;;;;;;;;14.60;47.34;96883.75;5096202;28;19975;-66
2023/05/10 11:40:39;;;;;;;;;;;;;;;14.65;47.35;96885.22;5096092;28;19977;-67
2023/05/10 11:43:06;;;;;;;;;;;;;;;14.49;47.56;96890.38;5096084;28;19920;-67
2023/05/10 11:45:34;;;;;;;;;;;;;;;14.56;48.06;96888.28;5096142;28;19942;-67
2023/05/10 11:48:01;;;;;;;;;;;;;;;14.42;46.17;96883.69;5095882;28;19973;-66
2023/05/10 11:50:28;;;;;;;;;;;;;;;14.27;47.74;96885.28;5095979;28;19945;-67
2023/05/10 11:52:55;;;;;;;;;;;;;;;13.96;48.72;96881.44;5095899;28;19978;-67
2023/05/10 11:55:25;;;;;;;;;;;;;;;13.77;49.12;96882.31;5095904;28;19919;-67
2023/05/10 11:58:01;;;;;;;;;;;;;;;13.74;50.30;96885.06;5095889;28;19973;-66
2023/05/10 12:00:28;;;;;;;;;;;;;;;13.58;50.68;96880.50;5095734;28;19923;-66
2023/05/10 12:02:56;;;;;;;;;;;;;;;13.52;51.48;96883.41;5095784;28;19967;-66
2023/05/10 12:05:23;;;;;;;;;;;;;;;13.76;51.48;96877.97;5095723;28;19920;-67
2023/05/10 12:07:50;;;;;;;;;;;;;;;13.85;51.82;96871.44;5095772;28;19920;-67
2023/05/10 12:10:17;;;;;;;;;;;;;;;13.76;49.85;96867.47;5095666;28;19920;-67
2023/05/10 12:12:44;;;;;;;;;;;;;;;13.74;49.62;96866.66;5095648;28;20357;-66
2023/05/10 12:15:15;;;;;;;;;;;;;;;13.66;49.93;96871.44;5095564;28;19924;-67
2023/05/10 12:17:44;;;;;;;;;;;;;;;13.76;50.27;96859.56;5095463;28;19920;-66
2023/05/10 12:20:15;;;;;;;;;;;;;;;13.83;48.71;96854.88;5094713;28;20296;-66
2023/05/10 12:22:44;;;;;;;;;;;;;;;14.13;50.52;96844.72;5095263;28;19920;-67
2023/05/10 12:25:11;;;;;;;;;;;;;;;14.38;49.11;96840.88;5095290;28;19977;-67
2023/05/10 12:27:38;;;;;;;;;;;;;;;14.69;49.23;96837.66;5095211;28;20018;-67
2023/05/10 12:30:06;;;;;;;;;;;;;;;14.97;47.98;96839.81;5095423;28;19999;-66
2023/05/10 12:32:40;;;;;;;;;;;;;;;14.95;45.69;96841.66;5095355;28;19920;-67
2023/05/10 12:35:08;;;;;;;;;;;;;;;14.85;44.26;96846.53;5095172;28;19920;-66
2023/05/10 12:37:38;;;;;;;;;;;;;;;14.64;42.79;96837.91;5095021;28;20006;-67
2023/05/10 12:40:10;;;;;;;;;;;;;;;14.19;43.23;96832.16;5094895;28;19920;-68
2023/05/10 12:42:38;;;;;;;;;;;;;;;14.28;43.72;96826.47;5095040;28;19959;-68
2023/05/10 12:45:05;;;;;;;;;;;;;;;14.43;48.09;96822.25;5094920;28;19955;-66
2023/05/10 12:47:32;;;;;;;;;;;;;;;14.35;46.20;96827.88;5094618;28;19920;-67
2023/05/10 12:50:01;;;;;;;;;;;;;;;14.33;47.17;96823.63;5094706;28;20336;-65
2023/05/10 12:52:28;;;;;;;;;;;;;;;14.31;46.41;96828.09;5094898;28;20293;-66
2023/05/10 12:54:55;;;;;;;;;;;;;;;14.03;46.51;96820.59;5094706;28;19920;-66
2023/05/10 12:57:22;;;;;;;;;;;;;;;14.19;46.64;96816.38;5094763;28;20389;-65